Time;durP1;ratioP1;P1;durP2;ratioP2;P2;SDS_P1;SDS_P2;PMS_P1;PMS_P2;Temp;Humidity;BMP_temperature;BMP_pressure;BME280_temperature;BME280_humidity;BME280_pressure;Samples;Min_cycle;Max_cycle;Signal;HPM_P1;HPM_P2
2024/02/21 00:04:55;;;;;;;9.55;3.67;;;;;;;9.62;82.84;101013.38;10196669;28;20685;-61
2024/02/21 00:09:57;;;;;;;11.52;5.10;;;;;;;9.55;84.09;101024.41;10197429;28;20433;-62
2024/02/21 00:14:59;;;;;;;11.13;4.47;;;;;;;9.59;84.12;101017.09;10180175;28;20077;-62
2024/02/21 00:20:00;;;;;;;9.93;4.43;;;;;;;9.65;84.43;101014.06;10210420;28;20129;-63
2024/02/21 00:25:02;;;;;;;9.85;5.25;;;;;;;9.53;85.59;101004.19;10202106;28;20114;-61
2024/02/21 00:30:05;;;;;;;11.07;5.28;;;;;;;9.36;86.67;100982.22;10204562;28;20058;-61
2024/02/21 00:35:06;;;;;;;9.82;4.53;;;;;;;9.53;86.50;100981.16;10207006;28;20163;-63
2024/02/21 00:40:08;;;;;;;8.80;4.70;;;;;;;9.49;86.50;100962.84;10189917;28;20162;-63
2024/02/21 00:45:10;;;;;;;9.85;5.40;;;;;;;9.37;87.68;100967.16;10204456;28;20537;-61
2024/02/21 00:50:11;;;;;;;12.30;5.07;;;;;;;9.38;88.53;100960.84;10214691;28;20180;-62
2024/02/21 00:55:15;;;;;;;15.27;7.93;;;;;;;9.31;88.21;100917.06;10195914;28;20415;-62
2024/02/21 01:00:17;;;;;;;8.85;5.38;;;;;;;9.16;89.03;100919.75;10207117;28;20043;-62
2024/02/21 01:05:19;;;;;;;18.75;6.85;;;;;;;9.22;89.39;100931.78;10211341;28;20461;-63
2024/02/21 01:10:21;;;;;;;12.77;5.80;;;;;;;9.28;89.36;100949.13;10200575;28;20055;-61
2024/02/21 01:15:22;;;;;;;12.60;5.70;;;;;;;9.37;88.70;100953.84;10200734;28;20761;-65
2024/02/21 01:20:24;;;;;;;13.95;6.22;;;;;;;9.21;89.37;100946.00;10208814;28;20075;-62
2024/02/21 01:25:25;;;;;;;12.02;6.65;;;;;;;9.27;88.72;100956.22;10205545;28;20095;-63
2024/02/21 01:30:27;;;;;;;10.40;5.63;;;;;;;9.15;89.57;100947.25;10202079;28;20490;-62
2024/02/21 01:35:28;;;;;;;13.63;5.88;;;;;;;9.20;89.12;100958.44;10194521;28;20131;-61
2024/02/21 01:40:30;;;;;;;10.05;6.55;;;;;;;9.23;89.17;100948.56;10205025;28;20071;-63
2024/02/21 01:45:31;;;;;;;11.60;5.35;;;;;;;9.24;89.11;100937.84;10193665;28;20051;-62
2024/02/21 01:50:34;;;;;;;9.13;5.68;;;;;;;9.26;88.57;100916.50;10202173;28;20191;-62
2024/02/21 01:55:36;;;;;;;9.40;5.72;;;;;;;9.25;88.96;100912.13;10206116;28;20047;-61
2024/02/21 02:00:40;;;;;;;12.50;6.40;;;;;;;9.30;88.61;100920.66;10200753;28;20611;-63
2024/02/21 02:05:46;;;;;;;8.88;5.30;;;;;;;9.24;89.13;100902.47;10198932;28;20050;-63
2024/02/21 02:10:47;;;;;;;10.63;7.25;;;;;;;9.26;88.81;100913.84;10210996;28;20054;-62
2024/02/21 02:15:49;;;;;;;13.32;5.72;;;;;;;9.32;88.56;100909.00;10206052;28;20154;-63
2024/02/21 02:20:53;;;;;;;9.85;5.40;;;;;;;9.35;88.43;100905.25;10207708;28;20073;-61
2024/02/21 02:25:54;;;;;;;9.18;6.05;;;;;;;9.51;87.66;100913.94;10187823;28;20063;-62
2024/02/21 02:30:56;;;;;;;10.55;5.60;;;;;;;9.49;87.54;100897.25;10193530;28;20071;-62
2024/02/21 02:35:58;;;;;;;9.07;6.07;;;;;;;9.45;87.59;100885.09;10202407;28;20055;-61
2024/02/21 02:41:00;;;;;;;13.02;6.25;;;;;;;9.44;87.19;100867.44;10205808;28;20480;-62
2024/02/21 02:46:03;;;;;;;10.85;5.38;;;;;;;9.31;87.24;100855.97;10202040;28;20141;-63
2024/02/21 02:51:04;;;;;;;9.50;5.88;;;;;;;9.17;87.56;100859.50;10202413;28;20821;-63
2024/02/21 02:56:07;;;;;;;9.30;6.13;;;;;;;9.14;87.95;100857.03;10200070;28;20046;-61
2024/02/21 03:01:08;;;;;;;10.45;6.60;;;;;;;9.00;88.16;100839.34;10182160;28;20055;-61
2024/02/21 03:06:09;;;;;;;8.27;5.82;;;;;;;9.00;87.95;100836.69;10190290;28;20107;-61
2024/02/21 03:11:11;;;;;;;11.27;6.63;;;;;;;9.15;88.24;100843.66;10198496;28;20607;-61
2024/02/21 03:16:17;;;;;;;13.98;6.88;;;;;;;9.19;87.93;100828.38;10195615;28;20051;-63
2024/02/21 03:21:18;;;;;;;12.05;5.50;;;;;;;9.14;87.91;100833.13;10206799;28;20102;-64
2024/02/21 03:26:20;;;;;;;10.00;5.93;;;;;;;9.06;88.46;100798.28;10186199;28;20187;-63
2024/02/21 03:31:21;;;;;;;10.52;6.72;;;;;;;9.10;89.21;100813.91;10194601;28;20095;-61
2024/02/21 03:36:23;;;;;;;13.57;6.45;;;;;;;9.06;89.98;100807.06;10199723;28;20062;-63
2024/02/21 03:41:24;;;;;;;12.70;7.15;;;;;;;9.14;90.22;100798.59;10187615;28;20082;-61
2024/02/21 03:46:25;;;;;;;14.27;8.20;;;;;;;8.96;91.32;100795.34;10198653;28;20118;-62
2024/02/21 03:51:27;;;;;;;12.27;7.03;;;;;;;8.95;91.41;100798.97;10204615;28;20050;-62
2024/02/21 03:56:28;;;;;;;12.93;7.90;;;;;;;8.80;92.01;100796.34;10206580;28;20051;-62
2024/02/21 04:01:30;;;;;;;14.93;7.72;;;;;;;8.89;91.78;100810.84;10198349;28;20086;-63
2024/02/21 04:06:31;;;;;;;12.88;7.45;;;;;;;8.85;91.83;100801.34;10190857;28;20077;-63
2024/02/21 04:11:33;;;;;;;13.57;7.72;;;;;;;8.75;91.69;100801.13;10195075;28;20162;-62
2024/02/21 04:16:34;;;;;;;13.23;8.18;;;;;;;8.67;92.13;100780.34;10202782;28;20054;-63
2024/02/21 04:21:36;;;;;;;11.77;6.68;;;;;;;8.65;92.91;100786.72;10197629;28;20430;-64
2024/02/21 04:26:37;;;;;;;15.23;7.18;;;;;;;8.83;91.95;100793.50;10195126;28;20051;-63
2024/02/21 04:31:39;;;;;;;11.48;7.60;;;;;;;8.76;91.23;100748.88;10191381;28;20148;-63
2024/02/21 04:36:40;;;;;;;12.93;6.95;;;;;;;8.77;91.40;100759.38;10195992;28;20479;-61
2024/02/21 04:41:42;;;;;;;11.63;6.88;;;;;;;8.76;91.32;100749.72;10196440;28;20062;-63
2024/02/21 04:46:43;;;;;;;11.38;6.70;;;;;;;8.85;90.96;100738.47;10198211;28;20048;-62
2024/02/21 04:51:46;;;;;;;11.82;6.82;;;;;;;8.81;90.66;100739.66;10184322;28;20709;-64
2024/02/21 04:56:47;;;;;;;13.55;7.22;;;;;;;8.83;90.75;100748.38;10200930;28;20138;-62
2024/02/21 05:01:53;;;;;;;8.05;5.85;;;;;;;8.79;90.30;100741.53;10203200;28;20083;-62
2024/02/21 05:06:54;;;;;;;13.38;6.32;;;;;;;8.67;90.30;100729.06;10204157;28;20058;-61
2024/02/21 05:11:56;;;;;;;12.48;6.53;;;;;;;8.69;90.01;100727.16;10207259;28;20414;-63
2024/02/21 05:16:57;;;;;;;13.25;6.78;;;;;;;8.67;89.68;100740.53;10202086;28;20047;-66
2024/02/21 05:21:59;;;;;;;14.05;7.32;;;;;;;8.64;89.86;100746.03;10205867;28;20498;-66
2024/02/21 05:27:00;;;;;;;9.45;5.68;;;;;;;8.60;89.97;100736.59;10195240;28;20618;-61
2024/02/21 05:32:02;;;;;;;10.45;6.60;;;;;;;8.63;89.75;100746.13;10217702;28;20048;-62
2024/02/21 05:37:04;;;;;;;12.68;7.38;;;;;;;8.51;89.97;100736.31;10201906;28;20694;-63
2024/02/21 05:42:05;;;;;;;14.90;7.38;;;;;;;8.54;90.13;100752.91;10192887;28;20618;-63
2024/02/21 05:47:09;;;;;;;11.27;6.07;;;;;;;8.67;90.11;100758.28;10188560;28;20651;-61
2024/02/21 05:52:11;;;;;;;13.15;7.15;;;;;;;8.74;89.26;100746.31;10204086;28;20065;-61
2024/02/21 05:57:13;;;;;;;15.18;6.90;;;;;;;8.57;89.83;100720.88;10202355;28;20062;-62
2024/02/21 06:02:14;;;;;;;10.88;6.72;;;;;;;8.72;89.79;100719.03;10191137;28;20054;-63
2024/02/21 06:07:16;;;;;;;11.20;6.78;;;;;;;8.60;89.74;100709.19;10201026;28;20050;-63
2024/02/21 06:12:18;;;;;;;12.60;6.43;;;;;;;8.64;89.77;100697.44;10204765;28;20073;-62
2024/02/21 06:17:20;;;;;;;12.27;6.70;;;;;;;8.51;90.51;100691.22;10191109;28;20336;-62
2024/02/21 06:22:21;;;;;;;13.45;7.38;;;;;;;8.45;90.33;100658.84;10177402;28;20862;-63
2024/02/21 06:27:24;;;;;;;11.63;6.78;;;;;;;8.48;89.03;100674.56;10192966;28;20138;-63
2024/02/21 06:32:25;;;;;;;11.32;6.70;;;;;;;8.43;88.88;100689.03;10181432;28;20420;-62
2024/02/21 06:37:27;;;;;;;9.30;7.45;;;;;;;8.48;89.46;100685.16;10198035;28;20058;-63
2024/02/21 06:42:29;;;;;;;14.40;7.20;;;;;;;8.37;90.18;100660.25;10197798;28;20179;-63
2024/02/21 06:47:30;;;;;;;10.27;7.20;;;;;;;8.36;90.68;100658.53;10199353;28;20091;-64
2024/02/21 06:52:32;;;;;;;11.02;6.75;;;;;;;8.30;90.12;100654.47;10201173;28;20062;-61
2024/02/21 06:57:33;;;;;;;11.60;7.13;;;;;;;8.28;89.78;100653.72;10200218;28;20630;-62
2024/02/21 07:02:35;;;;;;;11.98;6.60;;;;;;;8.32;88.52;100660.56;10199268;28;20047;-63
2024/02/21 07:07:37;;;;;;;11.95;8.68;;;;;;;8.34;87.85;100665.75;10192248;28;20676;-61
2024/02/21 07:12:41;;;;;;;14.05;8.00;;;;;;;8.34;88.29;100673.72;10196436;28;20062;-64
2024/02/21 07:17:43;;;;;;;9.77;6.82;;;;;;;8.38;88.42;100660.16;10194778;28;20107;-65
2024/02/21 07:22:44;;;;;;;10.98;7.20;;;;;;;8.31;89.04;100650.88;10191570;28;20055;-63
2024/02/21 07:27:46;;;;;;;10.20;5.55;;;;;;;8.41;89.30;100657.28;10193406;28;20138;-63
2024/02/21 07:32:51;;;;;;;10.82;5.15;;;;;;;8.44;88.07;100641.22;10193441;28;20053;-64
2024/02/21 07:37:52;;;;;;;11.40;6.18;;;;;;;8.66;87.46;100655.72;10185600;28;20055;-63
2024/02/21 07:42:53;;;;;;;9.73;5.03;;;;;;;8.66;86.27;100634.47;10198935;28;20051;-63
2024/02/21 07:47:55;;;;;;;8.57;5.10;;;;;;;8.71;86.71;100648.31;10179246;28;20717;-62
2024/02/21 07:52:57;;;;;;;9.88;5.28;;;;;;;8.84;85.97;100643.88;10191385;28;20699;-63
2024/02/21 07:57:58;;;;;;;10.90;6.07;;;;;;;9.04;85.25;100654.97;10191500;28;20141;-63
2024/02/21 08:03:00;;;;;;;8.32;4.53;;;;;;;9.17;84.00;100655.84;10190279;28;22327;-62
2024/02/21 08:08:04;;;;;;;9.73;5.18;;;;;;;9.12;82.91;100660.59;10199160;28;20156;-62
2024/02/21 08:13:06;;;;;;;11.23;4.65;;;;;;;9.05;82.61;100651.34;10196513;28;20141;-62
2024/02/21 08:18:08;;;;;;;7.60;4.63;;;;;;;9.18;83.26;100649.56;10206545;28;20058;-63
2024/02/21 08:23:09;;;;;;;12.20;5.25;;;;;;;9.12;83.53;100643.81;10194945;28;20093;-62
2024/02/21 08:28:12;;;;;;;9.95;4.68;;;;;;;9.23;83.24;100637.75;10185956;28;20066;-62
2024/02/21 08:33:16;;;;;;;9.13;4.55;;;;;;;9.24;83.72;100628.84;10195981;28;20054;-61
2024/02/21 08:38:18;;;;;;;10.33;4.03;;;;;;;9.05;83.38;100622.13;10201998;28;20174;-62
2024/02/21 08:43:20;;;;;;;12.43;5.03;;;;;;;9.12;83.22;100635.84;10200748;28;22917;-62
2024/02/21 08:48:21;;;;;;;8.48;4.75;;;;;;;9.23;83.03;100629.81;10200811;28;20078;-62
2024/02/21 08:53:23;;;;;;;7.28;4.55;;;;;;;9.38;82.88;100631.38;10202112;28;20052;-63
2024/02/21 08:58:26;;;;;;;9.75;5.10;;;;;;;9.45;81.73;100619.38;10201500;28;20114;-63
2024/02/21 09:03:28;;;;;;;9.23;4.85;;;;;;;9.57;80.75;100616.84;10199362;28;20122;-64
2024/02/21 09:08:29;;;;;;;10.15;4.75;;;;;;;9.54;80.76;100602.78;10199291;28;20133;-63
2024/02/21 09:13:31;;;;;;;7.30;4.38;;;;;;;9.60;79.51;100590.88;10210774;28;20051;-62
2024/02/21 09:18:32;;;;;;;6.60;4.25;;;;;;;9.64;79.23;100596.84;10204102;28;20062;-65
2024/02/21 09:23:34;;;;;;;9.70;4.07;;;;;;;9.62;78.81;100580.97;10187776;28;20055;-63
2024/02/21 09:28:35;;;;;;;8.52;4.78;;;;;;;9.68;77.94;100579.69;10195698;28;20145;-62
2024/02/21 09:33:37;;;;;;;10.32;4.22;;;;;;;9.45;76.39;100560.91;10199613;28;20141;-62
2024/02/21 09:38:40;;;;;;;9.00;4.00;;;;;;;9.50;77.81;100566.78;10196457;28;20054;-62
2024/02/21 09:43:41;;;;;;;9.45;4.13;;;;;;;9.54;76.81;100570.88;10191738;28;20183;-62
2024/02/21 09:49:04;;;;;;;9.85;4.68;;;;;;;9.43;76.62;100580.56;10204547;28;20087;-64
2024/02/21 09:54:07;;;;;;;9.80;5.35;;;;;;;9.47;76.67;100537.75;10197523;28;20090;-63
2024/02/21 09:59:17;;;;;;;8.65;5.38;;;;;;;9.84;74.88;100561.69;10196118;28;20386;-62
2024/02/21 10:04:20;;;;;;;9.23;4.88;;;;;;;9.91;75.07;100554.13;10191618;28;20058;-61
2024/02/21 10:09:29;;;;;;;7.47;4.15;;;;;;;10.10;73.78;100556.25;10204358;28;20401;-63
2024/02/21 10:14:32;;;;;;;7.90;4.22;;;;;;;10.17;73.41;100554.84;10197238;28;20067;-62
2024/02/21 10:19:33;;;;;;;7.85;4.50;;;;;;;10.43;71.96;100552.94;10178247;28;20055;-63
2024/02/21 10:24:38;;;;;;;5.45;3.60;;;;;;;10.54;70.57;100538.00;10201488;28;20115;-62
2024/02/21 10:29:40;;;;;;;6.78;3.63;;;;;;;10.65;69.76;100521.19;10198989;28;20710;-61
2024/02/21 10:34:42;;;;;;;6.57;3.78;;;;;;;10.88;70.32;100511.41;10200178;28;20059;-62
2024/02/21 10:39:45;;;;;;;7.00;3.40;;;;;;;10.81;69.30;100510.19;10200378;28;20070;-63
2024/02/21 10:44:51;;;;;;;9.70;4.15;;;;;;;10.77;69.59;100498.94;10200503;28;20391;-62
2024/02/21 10:50:02;;;;;;;10.98;3.78;;;;;;;10.72;69.95;100498.44;10188173;28;20122;-64
2024/02/21 10:55:10;;;;;;;8.23;3.78;;;;;;;10.90;70.37;100483.72;10199307;28;20062;-62
2024/02/21 11:00:17;;;;;;;8.85;3.85;;;;;;;11.18;68.21;100470.84;10198021;28;20126;-62
2024/02/21 11:05:20;;;;;;;9.93;4.68;;;;;;;11.17;68.04;100469.19;10192848;28;20126;-62
2024/02/21 11:10:25;;;;;;;7.57;4.40;;;;;;;11.13;68.35;100465.06;10202942;28;20092;-63
2024/02/21 11:15:27;;;;;;;8.70;3.35;;;;;;;11.29;68.20;100452.22;10171200;28;20133;-63
2024/02/21 11:20:37;;;;;;;11.57;4.05;;;;;;;11.34;68.04;100443.00;10198521;28;20564;-63
2024/02/21 11:25:39;;;;;;;7.43;4.07;;;;;;;11.47;67.89;100428.56;10194314;28;20047;-62
2024/02/21 11:30:42;;;;;;;8.10;3.88;;;;;;;11.55;67.51;100390.59;10196922;28;20059;-61
2024/02/21 11:35:46;;;;;;;6.13;3.60;;;;;;;12.57;63.63;100410.59;10196401;28;20696;-61
2024/02/21 11:40:47;;;;;;;6.60;3.72;;;;;;;12.57;63.00;100400.75;10200835;28;20055;-62
2024/02/21 11:45:49;;;;;;;8.57;4.05;;;;;;;12.75;63.45;100386.78;10193553;28;20510;-64
2024/02/21 11:50:54;;;;;;;10.32;3.80;;;;;;;12.65;63.03;100382.22;10204575;28;20096;-63
2024/02/21 11:55:56;;;;;;;9.70;4.78;;;;;;;13.45;60.81;100374.34;10187550;28;20136;-63
2024/02/21 12:00:58;;;;;;;6.38;3.50;;;;;;;13.33;60.54;100360.22;10157361;28;20162;-64
2024/02/21 12:06:00;;;;;;;9.95;4.72;;;;;;;12.86;61.43;100344.75;10193672;28;20460;-65
2024/02/21 12:11:02;;;;;;;6.68;4.05;;;;;;;12.14;64.62;100335.03;10192031;28;20063;-63
2024/02/21 12:16:05;;;;;;;9.13;3.70;;;;;;;11.89;65.73;100317.59;10191218;28;20055;-64
2024/02/21 12:21:10;;;;;;;10.15;5.03;;;;;;;11.77;66.25;100299.00;10193993;28;20117;-62
2024/02/21 12:26:12;;;;;;;6.93;4.03;;;;;;;11.84;65.92;100291.31;10196548;28;20162;-61
2024/02/21 12:31:14;;;;;;;9.60;4.18;;;;;;;12.14;65.94;100295.03;10175319;28;20290;-63
2024/02/21 12:36:15;;;;;;;11.75;3.70;;;;;;;12.19;64.72;100282.16;10180659;28;20095;-61
2024/02/21 12:41:16;;;;;;;6.10;3.67;;;;;;;12.50;63.25;100276.78;10197929;28;20052;-62
2024/02/21 12:46:18;;;;;;;7.53;3.50;;;;;;;12.73;62.49;100256.88;10201040;28;20431;-63
2024/02/21 12:51:20;;;;;;;8.45;3.80;;;;;;;12.65;60.94;100234.50;10197360;28;20051;-63
2024/02/21 12:56:22;;;;;;;5.93;3.20;;;;;;;12.52;62.26;100251.63;10197887;28;20083;-62
2024/02/21 13:01:23;;;;;;;7.70;3.10;;;;;;;11.99;62.65;100242.03;10199212;28;21466;-63
2024/02/21 13:06:25;;;;;;;5.47;3.20;;;;;;;12.01;64.02;100228.56;10196866;28;20426;-64
2024/02/21 13:11:30;;;;;;;8.52;3.40;;;;;;;11.92;64.67;100223.97;10192099;28;20063;-62
2024/02/21 13:16:38;;;;;;;8.90;3.58;;;;;;;11.82;65.34;100219.44;10193198;28;20604;-63
2024/02/21 13:21:41;;;;;;;9.48;3.05;;;;;;;11.61;65.38;100211.44;10199874;28;20050;-63
2024/02/21 13:26:43;;;;;;;9.88;3.67;;;;;;;11.59;66.16;100188.56;10197374;28;20889;-63
2024/02/21 13:31:44;;;;;;;5.68;2.45;;;;;;;11.48;65.63;100152.16;10196667;28;20656;-64
2024/02/21 13:36:46;;;;;;;9.73;3.35;;;;;;;11.54;66.29;100156.97;10201341;28;20051;-63
2024/02/21 13:41:47;;;;;;;6.40;3.08;;;;;;;11.59;66.26;100143.25;10200315;28;20777;-63
2024/02/21 13:46:49;;;;;;;9.35;2.88;;;;;;;11.76;66.10;100145.28;10189924;28;20129;-63
2024/02/21 13:51:51;;;;;;;7.32;2.78;;;;;;;11.97;64.98;100139.09;10198385;28;20061;-63
2024/02/21 13:56:52;;;;;;;6.45;3.15;;;;;;;12.15;63.85;100125.94;10194645;28;20058;-60
2024/02/21 14:01:54;;;;;;;4.70;2.72;;;;;;;13.13;60.51;100110.78;10189283;28;20129;-62
2024/02/21 14:06:55;;;;;;;6.10;2.30;;;;;;;13.83;57.78;100098.91;10194653;28;20063;-64
2024/02/21 14:11:58;;;;;;;7.85;3.33;;;;;;;13.69;58.03;100082.38;10196542;28;20067;-64
2024/02/21 14:17:00;;;;;;;6.28;2.85;;;;;;;13.19;59.23;100074.63;10192520;28;20063;-63
2024/02/21 14:22:02;;;;;;;4.30;2.72;;;;;;;12.76;60.66;100057.25;10197203;28;20090;-64
2024/02/21 14:27:04;;;;;;;6.93;3.13;;;;;;;12.52;60.83;100050.53;10182954;28;20056;-63
2024/02/21 14:32:07;;;;;;;6.30;3.55;;;;;;;12.40;61.32;100030.31;10201275;28;20067;-63
2024/02/21 14:37:10;;;;;;;4.25;2.08;;;;;;;12.24;62.50;100021.03;10171992;28;20047;-62
2024/02/21 14:42:11;;;;;;;6.50;3.00;;;;;;;12.16;62.48;100012.88;10201806;28;20063;-63
2024/02/21 14:47:12;;;;;;;6.47;3.30;;;;;;;12.08;63.21;99996.75;10192793;28;20660;-63
2024/02/21 14:52:17;;;;;;;6.53;2.60;;;;;;;11.91;63.17;99979.56;10215455;28;20055;-64
2024/02/21 14:57:20;;;;;;;7.75;3.22;;;;;;;11.66;64.40;99958.63;10215392;28;20183;-62
2024/02/21 15:02:22;;;;;;;8.38;2.95;;;;;;;11.75;64.96;99972.09;10178947;28;20106;-63
2024/02/21 15:07:25;;;;;;;7.22;2.92;;;;;;;11.80;64.96;99969.84;10196510;28;20054;-64
2024/02/21 15:12:27;;;;;;;5.60;2.20;;;;;;;11.77;63.83;99962.13;10197788;28;20658;-65
2024/02/21 15:17:28;;;;;;;7.25;2.63;;;;;;;11.80;64.24;99948.53;10182824;28;20521;-63
2024/02/21 15:22:30;;;;;;;5.18;2.75;;;;;;;11.68;64.29;99907.84;10208084;28;20160;-62
2024/02/21 15:27:32;;;;;;;5.47;2.65;;;;;;;11.60;64.32;99884.50;10198338;28;20487;-63
2024/02/21 15:32:33;;;;;;;7.68;2.63;;;;;;;11.64;64.60;99901.94;10198378;28;20059;-64
2024/02/21 15:37:35;;;;;;;3.80;2.00;;;;;;;11.44;64.41;99868.22;10196385;28;20070;-63
2024/02/21 15:42:37;;;;;;;6.75;2.60;;;;;;;11.47;64.64;99889.28;10193651;28;20074;-63
2024/02/21 15:47:39;;;;;;;4.70;3.05;;;;;;;11.42;65.00;99876.34;10197570;28;20056;-64
2024/02/21 15:52:41;;;;;;;15.13;10.05;;;;;;;11.36;65.32;99865.41;10195061;28;20065;-63
2024/02/21 15:57:44;;;;;;;7.85;6.35;;;;;;;11.45;65.90;99877.91;10201373;28;20065;-63
2024/02/21 16:02:46;;;;;;;7.82;5.20;;;;;;;11.38;64.93;99868.78;10199096;28;20575;-64
2024/02/21 16:07:47;;;;;;;9.15;3.63;;;;;;;11.29;65.23;99873.97;10196679;28;20237;-63
2024/02/21 16:12:50;;;;;;;6.70;4.05;;;;;;;11.20;65.23;99869.47;10194283;28;20047;-64
2024/02/21 16:17:52;;;;;;;6.75;2.40;;;;;;;11.25;65.42;99842.41;10196216;28;20569;-63
2024/02/21 16:22:54;;;;;;;6.15;2.70;;;;;;;11.18;65.12;99846.59;10191689;28;20756;-63
2024/02/21 16:27:56;;;;;;;9.57;3.97;;;;;;;11.15;65.40;99831.72;10209533;28;20193;-63
2024/02/21 16:32:57;;;;;;;5.70;2.95;;;;;;;11.06;65.56;99816.56;10198122;28;20154;-63
2024/02/21 16:38:02;;;;;;;9.48;2.75;;;;;;;11.08;65.58;99801.28;10196226;28;20478;-63
2024/02/21 16:43:05;;;;;;;9.60;2.42;;;;;;;11.08;65.20;99795.97;10192986;28;20051;-64
2024/02/21 16:48:07;;;;;;;8.27;4.03;;;;;;;11.07;64.67;99786.31;10194374;28;20058;-62
2024/02/21 16:53:09;;;;;;;9.68;5.00;;;;;;;11.01;64.84;99773.53;10197995;28;20517;-64
2024/02/21 16:58:11;;;;;;;10.38;2.90;;;;;;;11.01;64.56;99782.38;10198720;28;21359;-62
2024/02/21 17:03:12;;;;;;;7.07;2.63;;;;;;;10.94;64.82;99775.91;10183844;28;20063;-63
2024/02/21 17:08:15;;;;;;;7.65;2.67;;;;;;;10.94;64.93;99771.44;10172840;28;20058;-64
2024/02/21 17:13:17;;;;;;;4.55;2.28;;;;;;;10.89;65.03;99755.00;10199869;28;20078;-64
2024/02/21 17:18:18;;;;;;;5.85;2.42;;;;;;;10.92;64.76;99736.09;10190537;28;20051;-64
2024/02/21 17:23:22;;;;;;;5.80;2.65;;;;;;;11.06;64.53;99748.16;10197006;28;20667;-61
2024/02/21 17:28:24;;;;;;;5.68;3.28;;;;;;;10.94;63.61;99744.81;10200239;28;20130;-64
2024/02/21 17:33:26;;;;;;;7.93;5.45;;;;;;;10.93;64.11;99747.59;10212633;28;20513;-64
2024/02/21 17:38:29;;;;;;;7.60;3.75;;;;;;;10.89;63.64;99736.38;10201314;28;20502;-63
2024/02/21 17:43:32;;;;;;;8.35;3.78;;;;;;;10.91;62.90;99729.09;10203683;28;20813;-62
2024/02/21 17:48:35;;;;;;;6.32;3.13;;;;;;;10.94;62.39;99715.50;10204109;28;20155;-64
2024/02/21 17:53:38;;;;;;;6.30;3.63;;;;;;;10.96;62.99;99708.22;10200209;28;20043;-64
2024/02/21 17:58:40;;;;;;;4.35;2.50;;;;;;;10.95;61.50;99709.19;10196967;28;20137;-62
2024/02/21 18:03:42;;;;;;;7.00;2.75;;;;;;;10.88;61.71;99689.41;10212052;28;20055;-61
2024/02/21 18:08:44;;;;;;;6.78;2.83;;;;;;;10.97;61.95;99701.06;10201043;28;20055;-65
2024/02/21 18:13:46;;;;;;;5.72;2.20;;;;;;;11.02;59.73;99684.66;10206671;28;20051;-65
2024/02/21 18:18:48;;;;;;;5.22;2.33;;;;;;;10.99;60.94;99692.94;10198890;28;20058;-64
2024/02/21 18:23:49;;;;;;;6.07;2.83;;;;;;;10.99;59.74;99698.25;10195310;28;20670;-64
2024/02/21 18:28:52;;;;;;;6.53;3.28;;;;;;;10.98;59.92;99686.78;10194945;28;23823;-65
2024/02/21 18:33:56;;;;;;;13.85;5.35;;;;;;;11.05;60.30;99666.59;10197313;28;21470;-62
2024/02/21 18:38:57;;;;;;;19.48;6.80;;;;;;;11.04;60.64;99666.72;10179927;28;20074;-65
2024/02/21 18:44:01;;;;;;;17.98;6.80;;;;;;;11.08;60.57;99676.09;10193127;28;20537;-64
2024/02/21 18:49:04;;;;;;;13.30;4.63;;;;;;;11.05;60.13;99663.94;10184872;28;20551;-65
2024/02/21 18:54:05;;;;;;;14.18;5.75;;;;;;;10.91;60.71;99653.69;10199066;28;20051;-65
2024/02/21 18:59:12;;;;;;;39.38;33.00;;;;;;;11.01;61.25;99637.72;10186203;28;20734;-64
2024/02/21 19:04:14;;;;;;;9.02;5.07;;;;;;;11.00;60.54;99646.69;10178408;28;20051;-65
2024/02/21 19:09:16;;;;;;;21.92;9.45;;;;;;;10.97;62.04;99629.16;10205543;28;20066;-64
2024/02/21 19:14:19;;;;;;;10.68;6.63;;;;;;;10.90;61.25;99607.59;10201766;28;20147;-65
2024/02/21 19:19:21;;;;;;;42.50;37.92;;;;;;;10.88;61.45;99584.75;10187072;28;20091;-65
2024/02/21 19:24:24;;;;;;;14.85;9.20;;;;;;;10.93;61.37;99586.00;10195064;28;20067;-64
2024/02/21 19:29:25;;;;;;;8.50;4.28;;;;;;;10.93;61.34;99562.03;10191326;28;20051;-66
2024/02/21 19:34:27;;;;;;;11.55;8.02;;;;;;;10.94;61.52;99562.88;10201764;28;20054;-63
2024/02/21 19:39:29;;;;;;;8.13;4.25;;;;;;;10.97;61.51;99570.56;10200820;28;20296;-64
2024/02/21 19:44:31;;;;;;;8.05;3.35;;;;;;;10.95;61.99;99559.22;10184283;28;20202;-64
2024/02/21 19:49:35;;;;;;;5.03;2.72;;;;;;;10.99;62.52;99543.78;10196137;28;20435;-65
2024/02/21 19:54:36;;;;;;;8.60;5.85;;;;;;;10.83;64.08;99545.22;10194158;28;20317;-64
2024/02/21 19:59:38;;;;;;;9.13;7.00;;;;;;;10.88;66.73;99523.50;10183682;28;20050;-63
2024/02/21 20:04:40;;;;;;;5.18;3.30;;;;;;;10.81;67.90;99504.63;10194780;28;20553;-66
2024/02/21 20:09:41;;;;;;;5.15;2.60;;;;;;;10.69;69.97;99489.75;10193882;28;20062;-64
2024/02/21 20:14:45;;;;;;;5.80;2.97;;;;;;;10.60;71.27;99472.84;10192965;28;20047;-65
2024/02/21 20:19:46;;;;;;;17.42;15.75;;;;;;;10.55;71.64;99467.97;10201323;28;20121;-63
2024/02/21 20:24:48;;;;;;;4.53;2.95;;;;;;;10.44;73.67;99444.16;10176460;28;20054;-64
2024/02/21 20:29:49;;;;;;;7.15;4.85;;;;;;;10.48;75.15;99456.22;10200578;28;21325;-63
2024/02/21 20:34:51;;;;;;;5.00;3.17;;;;;;;10.40;76.39;99435.63;10209485;28;20051;-64
2024/02/21 20:39:53;;;;;;;4.75;2.78;;;;;;;10.35;77.96;99418.41;10204464;28;20058;-63
2024/02/21 20:44:55;;;;;;;5.38;3.28;;;;;;;10.19;79.88;99403.00;10224535;28;20808;-63
2024/02/21 20:49:57;;;;;;;6.38;2.90;;;;;;;10.16;81.03;99390.81;10207679;28;20081;-62
2024/02/21 20:55:00;;;;;;;5.27;3.37;;;;;;;9.96;81.93;99375.88;10205279;28;20194;-63
2024/02/21 21:00:05;;;;;;;7.40;3.20;;;;;;;9.73;84.96;99349.59;10186596;28;20056;-63
2024/02/21 21:05:07;;;;;;;4.97;3.25;;;;;;;9.87;85.19;99350.97;10206865;28;20553;-63
2024/02/21 21:10:12;;;;;;;6.05;3.20;;;;;;;9.77;85.89;99356.28;10191036;28;20047;-64
2024/02/21 21:15:13;;;;;;;5.65;3.05;;;;;;;9.86;87.58;99350.16;10198943;28;20426;-62
2024/02/21 21:20:16;;;;;;;5.28;3.10;;;;;;;9.70;87.14;99348.03;10203670;28;20743;-64
2024/02/21 21:25:18;;;;;;;4.13;2.35;;;;;;;9.77;88.59;99337.69;10214580;28;20050;-64
2024/02/21 21:30:21;;;;;;;5.32;2.40;;;;;;;9.78;88.50;99341.19;10203314;28;20058;-63
2024/02/21 21:35:22;;;;;;;4.95;2.60;;;;;;;9.72;90.68;99331.97;10186123;28;20118;-63
2024/02/21 21:40:26;;;;;;;5.95;3.17;;;;;;;9.79;91.16;99322.44;10185434;28;20167;-63
2024/02/21 21:45:29;;;;;;;5.07;3.17;;;;;;;9.55;92.83;99312.25;10194005;28;20120;-65
2024/02/21 21:50:31;;;;;;;5.55;2.80;;;;;;;9.41;94.41;99302.03;10214777;28;20141;-63
2024/02/21 21:55:35;;;;;;;4.68;3.55;;;;;;;9.45;94.40;99285.66;10174444;28;20049;-63
2024/02/21 22:00:37;;;;;;;6.50;3.25;;;;;;;9.28;97.34;99271.28;10204544;28;20051;-62
2024/02/21 22:05:38;;;;;;;5.68;3.00;;;;;;;9.21;98.62;99280.78;10190401;28;20059;-63
2024/02/21 22:10:40;;;;;;;4.72;2.70;;;;;;;9.26;100.00;99269.72;10203534;28;20138;-63
2024/02/21 22:15:41;;;;;;;6.70;3.22;;;;;;;9.39;99.62;99267.63;10201247;28;20052;-63
2024/02/21 22:20:43;;;;;;;6.75;3.38;;;;;;;9.48;99.52;99260.66;10190675;28;20052;-62
2024/02/21 22:25:46;;;;;;;5.03;3.15;;;;;;;9.40;100.00;99258.69;10206790;28;20054;-62
2024/02/21 22:30:49;;;;;;;6.10;3.23;;;;;;;9.37;100.00;99243.06;10193633;28;20061;-62
2024/02/21 22:35:52;;;;;;;7.07;3.22;;;;;;;9.34;100.00;99227.41;10192570;28;20066;-62
2024/02/21 22:40:54;;;;;;;4.78;3.15;;;;;;;9.31;100.00;99219.72;10196507;28;20199;-62
2024/02/21 22:45:57;;;;;;;4.63;3.15;;;;;;;9.31;100.00;99212.56;10198230;28;20050;-62
2024/02/21 22:50:58;;;;;;;3.67;2.78;;;;;;;9.20;100.00;99200.28;10206589;28;20059;-62
2024/02/21 22:56:00;;;;;;;4.63;3.25;;;;;;;9.28;100.00;99202.25;10206735;28;20092;-63
2024/02/21 23:01:02;;;;;;;4.28;2.92;;;;;;;9.32;100.00;99192.16;10200057;28;20094;-62
2024/02/21 23:06:04;;;;;;;6.28;3.53;;;;;;;9.26;100.00;99176.78;10177198;28;20549;-62
2024/02/21 23:11:06;;;;;;;6.70;3.00;;;;;;;9.23;100.00;99171.75;10198357;28;20126;-62
2024/02/21 23:16:07;;;;;;;4.15;2.53;;;;;;;9.27;100.00;99151.91;10182382;28;20054;-62
2024/02/21 23:21:11;;;;;;;3.67;2.03;;;;;;;9.23;100.00;99145.22;10181530;28;20042;-62